Time;durP1;ratioP1;P1;durP2;ratioP2;P2;SDS_P1;SDS_P2;PMS_P1;PMS_P2;Temp;Humidity;BMP_temperature;BMP_pressure;BME280_temperature;BME280_humidity;BME280_pressure;Samples;Min_cycle;Max_cycle;Signal;HPM_P1;HPM_P2
2022/07/27 00:00:05;;;;;;;4.18;1.52;;;;;;;;;;5062705;28;20043;-70
2022/07/27 00:02:31;;;;;;;3.42;1.70;;;;;;;;;;5060557;28;20040;-70
2022/07/27 00:04:57;;;;;;;3.05;1.25;;;;;;;;;;5063191;28;20076;-70
2022/07/27 00:07:23;;;;;;;4.40;1.83;;;;;;;;;;5061888;28;20088;-70
2022/07/27 00:09:49;;;;;;;1.98;1.55;;;;;;;;;;5095033;27;20234;-70
2022/07/27 00:12:15;;;;;;;5.50;1.45;;;;;;;;;;5059847;28;20073;-70
2022/07/27 00:14:42;;;;;;;2.85;1.52;;;;;;;;;;5092991;27;20904;-70
2022/07/27 00:17:08;;;;;;;6.35;1.38;;;;;;;;;;5063853;28;20040;-69
2022/07/27 00:19:34;;;;;;;0.95;0.85;;;;;;;;;;5061005;28;20037;-70
2022/07/27 00:22:00;;;;;;;2.40;1.55;;;;;;;;;;5058606;28;20099;-70
2022/07/27 00:24:26;;;;;;;4.07;1.20;;;;;;;;;;5092750;27;20033;-69
2022/07/27 00:26:52;;;;;;;2.40;1.45;;;;;;;;;;5063495;28;20040;-69
2022/07/27 00:29:18;;;;;;;3.72;1.50;;;;;;;;;;5062279;28;20044;-70
2022/07/27 00:31:44;;;;;;;3.17;1.50;;;;;;;;;;5092993;27;20045;-70
2022/07/27 00:34:10;;;;;;;2.55;1.80;;;;;;;;;;5062221;28;20072;-69
2022/07/27 00:36:37;;;;;;;3.92;1.73;;;;;;;;;;5059910;28;20044;-70
2022/07/27 00:39:03;;;;;;;2.67;1.80;;;;;;;;;;5060929;28;20977;-70
2022/07/27 00:41:29;;;;;;;2.88;1.60;;;;;;;;;;5091044;27;20036;-70
2022/07/27 00:43:57;;;;;;;4.47;2.08;;;;;;;;;;5060484;28;20119;-70
2022/07/27 00:46:23;;;;;;;2.13;1.25;;;;;;;;;;5062149;28;20036;-70
2022/07/27 00:48:50;;;;;;;3.25;0.90;;;;;;;;;;5061430;28;20037;-70
2022/07/27 00:51:17;;;;;;;1.90;1.30;;;;;;;;;;5060429;28;20474;-69
2022/07/27 00:53:43;;;;;;;1.75;1.23;;;;;;;;;;5060953;28;20041;-70
2022/07/27 00:56:09;;;;;;;2.40;1.48;;;;;;;;;;5062261;28;20040;-70
2022/07/27 00:58:37;;;;;;;3.40;1.42;;;;;;;;;;5092718;27;20037;-70
2022/07/27 01:01:04;;;;;;;2.13;1.20;;;;;;;;;;5057628;28;20412;-70
2022/07/27 01:03:30;;;;;;;4.80;1.50;;;;;;;;;;5062353;28;20079;-69
2022/07/27 01:05:56;;;;;;;2.47;1.20;;;;;;;;;;5059860;28;20064;-69
2022/07/27 01:08:22;;;;;;;2.85;1.30;;;;;;;;;;5060824;28;20057;-69
2022/07/27 01:10:50;;;;;;;3.38;1.35;;;;;;;;;;5062257;28;21582;-70
2022/07/27 01:13:16;;;;;;;1.40;1.10;;;;;;;;;;5061766;28;20049;-69
2022/07/27 01:15:43;;;;;;;2.40;0.95;;;;;;;;;;5093406;27;20554;-70
2022/07/27 01:18:13;;;;;;;4.13;1.50;;;;;;;;;;5061776;28;20044;-70
2022/07/27 01:20:39;;;;;;;4.90;1.40;;;;;;;;;;5059597;28;20519;-70
2022/07/27 01:23:05;;;;;;;1.38;0.93;;;;;;;;;;5060274;28;20522;-69
2022/07/27 01:25:32;;;;;;;2.72;1.15;;;;;;;;;;5061123;28;20527;-69
2022/07/27 01:27:59;;;;;;;5.65;1.50;;;;;;;;;;5061839;28;20602;-70
2022/07/27 01:30:25;;;;;;;2.88;1.40;;;;;;;;;;5059261;28;20120;-69
2022/07/27 01:33:11;;;;;;;2.85;0.95;;;;;;;;;;5061048;28;20664;-69
2022/07/27 01:35:38;;;;;;;4.22;1.20;;;;;;;;;;5056865;28;20056;-69
2022/07/27 01:38:04;;;;;;;6.55;1.52;;;;;;;;;;5058018;28;20589;-69
2022/07/27 01:40:31;;;;;;;3.08;1.85;;;;;;;;;;5059754;28;20036;-70
2022/07/27 01:42:57;;;;;;;1.67;1.00;;;;;;;;;;5062484;28;20765;-69
2022/07/27 01:45:23;;;;;;;4.47;1.23;;;;;;;;;;5059064;28;20040;-69
2022/07/27 01:47:49;;;;;;;3.22;1.38;;;;;;;;;;5062567;28;20045;-69
2022/07/27 01:50:15;;;;;;;6.07;1.23;;;;;;;;;;5063508;28;20041;-70
2022/07/27 01:52:41;;;;;;;3.65;1.58;;;;;;;;;;5062501;28;20067;-70
2022/07/27 01:55:09;;;;;;;6.65;1.40;;;;;;;;;;5060226;28;20036;-69
2022/07/27 01:57:36;;;;;;;1.77;1.08;;;;;;;;;;5062156;28;20040;-69
2022/07/27 02:00:03;;;;;;;1.95;1.25;;;;;;;;;;5060388;28;20624;-69
2022/07/27 02:02:29;;;;;;;3.00;1.70;;;;;;;;;;5058342;28;20554;-69
2022/07/27 02:04:56;;;;;;;2.58;1.42;;;;;;;;;;5060921;28;20037;-69
2022/07/27 02:07:22;;;;;;;5.60;1.75;;;;;;;;;;5059666;28;21051;-69
2022/07/27 02:09:48;;;;;;;1.00;0.90;;;;;;;;;;5061623;28;20132;-69
2022/07/27 02:15:00;;;;;;;3.97;1.38;;;;;;;;;;5058596;28;20669;-70
2022/07/27 02:17:26;;;;;;;5.60;1.40;;;;;;;;;;5059677;28;20029;-69
2022/07/27 02:19:52;;;;;;;1.90;1.20;;;;;;;;;;5062824;28;20604;-69
2022/07/27 02:22:18;;;;;;;3.67;1.40;;;;;;;;;;5058148;28;20055;-69
2022/07/27 02:24:44;;;;;;;1.48;1.20;;;;;;;;;;5060610;28;20052;-69
2022/07/27 02:27:10;;;;;;;6.85;1.40;;;;;;;;;;5062287;28;22186;-69
2022/07/27 02:29:37;;;;;;;1.77;1.23;;;;;;;;;;5060053;28;20536;-69
2022/07/27 02:32:03;;;;;;;3.00;1.20;;;;;;;;;;5060437;28;20036;-70
2022/07/27 02:34:29;;;;;;;2.42;1.33;;;;;;;;;;5056585;28;20057;-69
2022/07/27 02:36:55;;;;;;;4.05;1.40;;;;;;;;;;5062371;28;20148;-70
2022/07/27 02:39:21;;;;;;;5.35;2.72;;;;;;;;;;5056766;28;20048;-70
2022/07/27 02:41:48;;;;;;;1.80;1.20;;;;;;;;;;5061693;28;20116;-69
2022/07/27 02:44:16;;;;;;;3.38;1.13;;;;;;;;;;5063343;28;21682;-69
2022/07/27 02:46:42;;;;;;;3.05;1.35;;;;;;;;;;5059339;28;20151;-69
2022/07/27 02:49:08;;;;;;;2.53;1.00;;;;;;;;;;5047217;28;20422;-70
2022/07/27 02:51:35;;;;;;;3.60;1.10;;;;;;;;;;5066176;28;20527;-70
2022/07/27 02:54:01;;;;;;;5.82;1.55;;;;;;;;;;5063621;28;20368;-69
2022/07/27 02:56:27;;;;;;;7.60;2.00;;;;;;;;;;5064202;28;20048;-69
2022/07/27 02:58:54;;;;;;;15.43;2.05;;;;;;;;;;5066642;28;20224;-70
2022/07/27 03:01:20;;;;;;;3.03;1.38;;;;;;;;;;5064014;28;20036;-70
2022/07/27 03:03:46;;;;;;;3.70;1.35;;;;;;;;;;5064488;28;20647;-70
2022/07/27 03:06:12;;;;;;;2.42;1.30;;;;;;;;;;5064663;28;20163;-70
2022/07/27 03:08:39;;;;;;;3.20;1.20;;;;;;;;;;5064005;28;20045;-70
2022/07/27 03:11:05;;;;;;;2.80;1.77;;;;;;;;;;5065658;28;20037;-70
2022/07/27 03:13:31;;;;;;;3.25;1.52;;;;;;;;;;5064522;28;20103;-70
2022/07/27 03:15:58;;;;;;;2.38;1.70;;;;;;;;;;5061436;28;20048;-70
2022/07/27 03:18:24;;;;;;;3.20;1.58;;;;;;;;;;5060909;28;20056;-70
2022/07/27 03:20:50;;;;;;;3.35;1.65;;;;;;;;;;5096503;27;20063;-69
2022/07/27 03:23:19;;;;;;;2.45;1.33;;;;;;;;;;5063621;28;20036;-70
2022/07/27 03:25:45;;;;;;;3.80;2.17;;;;;;;;;;5061777;28;20049;-69
2022/07/27 03:28:11;;;;;;;3.80;1.30;;;;;;;;;;5064000;28;20136;-69
2022/07/27 03:30:38;;;;;;;2.13;1.23;;;;;;;;;;5061565;28;20041;-70
2022/07/27 03:33:04;;;;;;;3.45;1.60;;;;;;;;;;5062742;28;20033;-70
2022/07/27 03:35:30;;;;;;;9.27;1.85;;;;;;;;;;5061805;28;20538;-70
2022/07/27 03:37:56;;;;;;;3.50;1.48;;;;;;;;;;5065902;28;20045;-69
2022/07/27 03:40:22;;;;;;;8.77;2.45;;;;;;;;;;5062052;28;20041;-69
2022/07/27 03:42:48;;;;;;;3.40;1.92;;;;;;;;;;5062476;28;20535;-69
2022/07/27 03:45:15;;;;;;;3.50;1.50;;;;;;;;;;5061389;28;20724;-69
2022/07/27 03:47:41;;;;;;;6.15;2.35;;;;;;;;;;5062620;28;20056;-69
2022/07/27 03:50:07;;;;;;;3.95;1.88;;;;;;;;;;5062128;28;20077;-69
2022/07/27 03:52:33;;;;;;;1.98;1.30;;;;;;;;;;5059709;28;22580;-69
2022/07/27 03:54:59;;;;;;;2.33;1.65;;;;;;;;;;5060135;28;20045;-70
2022/07/27 03:57:25;;;;;;;2.53;1.40;;;;;;;;;;5062802;28;20037;-69
2022/07/27 03:59:53;;;;;;;5.38;1.80;;;;;;;;;;5062158;28;20045;-69
2022/07/27 04:02:19;;;;;;;3.65;1.85;;;;;;;;;;5061150;28;20071;-70
2022/07/27 04:04:45;;;;;;;2.67;1.60;;;;;;;;;;5095856;27;20064;-69
2022/07/27 04:07:11;;;;;;;1.92;1.50;;;;;;;;;;5063230;28;20062;-69
2022/07/27 04:09:37;;;;;;;3.45;1.48;;;;;;;;;;5061479;28;20048;-70
2022/07/27 04:12:03;;;;;;;2.65;1.40;;;;;;;;;;5062617;28;20052;-69
2022/07/27 04:14:30;;;;;;;1.92;1.20;;;;;;;;;;5046786;28;20029;-69
2022/07/27 04:16:56;;;;;;;6.22;2.67;;;;;;;;;;5061416;28;20052;-69
2022/07/27 04:19:22;;;;;;;3.10;1.77;;;;;;;;;;5061496;28;20040;-70
2022/07/27 04:21:48;;;;;;;5.80;1.77;;;;;;;;;;5063288;28;20053;-70
2022/07/27 04:24:14;;;;;;;4.47;1.63;;;;;;;;;;5063323;28;20044;-70
2022/07/27 04:26:40;;;;;;;2.90;1.42;;;;;;;;;;5061325;28;20664;-70
2022/07/27 04:29:07;;;;;;;4.60;2.45;;;;;;;;;;5061605;28;20743;-70
2022/07/27 04:31:33;;;;;;;3.55;2.28;;;;;;;;;;5061603;28;20037;-70
2022/07/27 04:33:59;;;;;;;3.72;1.90;;;;;;;;;;5061574;28;20040;-70
2022/07/27 04:36:25;;;;;;;7.05;1.85;;;;;;;;;;5064404;28;20091;-71
2022/07/27 04:38:51;;;;;;;3.15;1.88;;;;;;;;;;5061115;28;20052;-71
2022/07/27 04:41:17;;;;;;;4.05;2.13;;;;;;;;;;5060392;28;20044;-70
2022/07/27 04:43:43;;;;;;;7.15;2.10;;;;;;;;;;5095985;27;20041;-71
2022/07/27 04:46:12;;;;;;;3.90;2.20;;;;;;;;;;5043399;28;21116;-71
2022/07/27 04:48:38;;;;;;;4.30;2.13;;;;;;;;;;5062167;28;20045;-71
2022/07/27 04:51:04;;;;;;;3.50;1.80;;;;;;;;;;5075502;28;20144;-70
2022/07/27 04:53:30;;;;;;;3.80;2.13;;;;;;;;;;5095613;27;21046;-70
2022/07/27 04:55:56;;;;;;;3.13;2.15;;;;;;;;;;5063434;28;20041;-69
2022/07/27 04:58:22;;;;;;;7.30;2.15;;;;;;;;;;5061998;28;20048;-69
2022/07/27 05:00:48;;;;;;;6.88;2.00;;;;;;;;;;5060686;28;20052;-71
2022/07/27 05:03:15;;;;;;;7.85;2.10;;;;;;;;;;5060114;28;20123;-70
2022/07/27 05:05:41;;;;;;;7.35;1.80;;;;;;;;;;5062216;28;20049;-71
2022/07/27 05:08:07;;;;;;;2.40;1.63;;;;;;;;;;5046185;28;20572;-70
2022/07/27 05:10:33;;;;;;;7.40;2.28;;;;;;;;;;5061982;28;20135;-72
2022/07/27 05:12:59;;;;;;;3.78;1.27;;;;;;;;;;5063086;28;20044;-72
2022/07/27 05:15:25;;;;;;;4.90;2.45;;;;;;;;;;5060820;28;20045;-72
2022/07/27 05:17:52;;;;;;;5.45;2.50;;;;;;;;;;5063698;28;20052;-71
2022/07/27 05:20:19;;;;;;;6.38;1.88;;;;;;;;;;5062307;28;20080;-72
2022/07/27 05:22:45;;;;;;;9.55;2.83;;;;;;;;;;5062613;28;20128;-69
2022/07/27 05:25:11;;;;;;;4.57;2.03;;;;;;;;;;5060104;28;20041;-69
2022/07/27 05:27:37;;;;;;;7.28;2.30;;;;;;;;;;5061806;28;20037;-69
2022/07/27 05:30:06;;;;;;;4.00;1.98;;;;;;;;;;5061832;28;20061;-69
2022/07/27 05:32:32;;;;;;;6.97;2.90;;;;;;;;;;5058865;28;20097;-69
2022/07/27 05:34:58;;;;;;;5.60;2.88;;;;;;;;;;5091688;27;20053;-70
2022/07/27 05:37:24;;;;;;;3.35;2.30;;;;;;;;;;5062565;28;20119;-69
2022/07/27 05:39:50;;;;;;;6.53;2.38;;;;;;;;;;5061103;28;20130;-69
2022/07/27 05:42:16;;;;;;;5.20;1.92;;;;;;;;;;5058488;28;20040;-70
2022/07/27 05:44:42;;;;;;;3.65;2.10;;;;;;;;;;5056697;28;20056;-70
2022/07/27 05:47:09;;;;;;;4.22;2.22;;;;;;;;;;5058486;28;20881;-70
2022/07/27 05:49:35;;;;;;;3.70;2.05;;;;;;;;;;5094592;27;20045;-70
2022/07/27 05:52:01;;;;;;;5.57;2.67;;;;;;;;;;5063074;28;20048;-70
2022/07/27 05:54:27;;;;;;;7.80;2.75;;;;;;;;;;5059954;28;20597;-70
2022/07/27 05:56:53;;;;;;;4.35;2.47;;;;;;;;;;5061513;28;20041;-70
2022/07/27 05:59:19;;;;;;;9.50;3.05;;;;;;;;;;5093762;27;20033;-70
2022/07/27 06:01:45;;;;;;;7.38;3.15;;;;;;;;;;5060999;28;20047;-70
2022/07/27 06:04:12;;;;;;;7.43;3.22;;;;;;;;;;5060218;28;20672;-72
2022/07/27 06:09:22;;;;;;;5.88;2.83;;;;;;;;;;5060574;28;20057;-71
2022/07/27 06:11:48;;;;;;;10.13;3.10;;;;;;;;;;5050521;28;20045;-71
2022/07/27 06:14:15;;;;;;;10.20;3.50;;;;;;;;;;5088013;27;20052;-72
2022/07/27 06:16:41;;;;;;;6.28;3.17;;;;;;;;;;5092576;27;20052;-71
2022/07/27 06:19:07;;;;;;;12.40;3.65;;;;;;;;;;5094123;27;20045;-71
2022/07/27 06:21:33;;;;;;;4.25;2.85;;;;;;;;;;5095114;27;20454;-71
2022/07/27 06:23:59;;;;;;;9.02;4.28;;;;;;;;;;5091702;27;20052;-72
2022/07/27 06:26:25;;;;;;;4.78;2.40;;;;;;;;;;5063288;28;20045;-72
2022/07/27 06:28:57;;;;;;;8.30;3.35;;;;;;;;;;5093368;27;21602;-72
2022/07/27 06:31:23;;;;;;;15.73;3.50;;;;;;;;;;5063443;28;20566;-72
2022/07/27 06:33:49;;;;;;;7.22;3.28;;;;;;;;;;5060067;28;20616;-72
2022/07/27 06:36:15;;;;;;;9.25;3.53;;;;;;;;;;5061898;28;20645;-72
2022/07/27 06:38:41;;;;;;;8.75;2.78;;;;;;;;;;5059278;28;20033;-71
2022/07/27 06:41:07;;;;;;;9.73;2.90;;;;;;;;;;5061174;28;20072;-72
2022/07/27 06:43:34;;;;;;;9.18;3.72;;;;;;;;;;5061666;28;20058;-72
2022/07/27 06:46:00;;;;;;;4.93;2.65;;;;;;;;;;5057370;28;20199;-72
2022/07/27 06:48:26;;;;;;;4.47;2.78;;;;;;;;;;5055977;28;20045;-72
2022/07/27 06:50:52;;;;;;;8.35;5.40;;;;;;;;;;5058790;28;20578;-72
2022/07/27 06:53:19;;;;;;;6.63;3.55;;;;;;;;;;5059280;28;20033;-72
2022/07/27 06:55:45;;;;;;;4.80;2.47;;;;;;;;;;5061741;28;20522;-72
2022/07/27 06:58:11;;;;;;;7.70;3.70;;;;;;;;;;5057083;28;20041;-72
2022/07/27 07:00:39;;;;;;;8.23;2.65;;;;;;;;;;5060427;28;20582;-82
2022/07/27 07:03:06;;;;;;;8.70;3.22;;;;;;;;;;5057646;28;20041;-72
2022/07/27 07:05:35;;;;;;;11.18;4.07;;;;;;;;;;5057056;28;20045;-72
2022/07/27 07:08:01;;;;;;;8.10;3.20;;;;;;;;;;5059299;28;20530;-71
2022/07/27 07:10:28;;;;;;;6.50;3.38;;;;;;;;;;5061490;28;20033;-71
2022/07/27 07:12:54;;;;;;;11.25;5.22;;;;;;;;;;5062440;28;20068;-72
2022/07/27 07:15:24;;;;;;;4.68;2.70;;;;;;;;;;5062854;28;20139;-72
2022/07/27 07:17:51;;;;;;;5.85;3.05;;;;;;;;;;5063381;28;20040;-71
2022/07/27 07:20:17;;;;;;;10.48;3.47;;;;;;;;;;5060709;28;20041;-72
2022/07/27 07:22:43;;;;;;;7.20;2.60;;;;;;;;;;5061312;28;20041;-71
2022/07/27 07:25:09;;;;;;;13.77;4.03;;;;;;;;;;5076773;28;20048;-71
2022/07/27 07:27:35;;;;;;;6.28;2.42;;;;;;;;;;5096238;27;20565;-72
2022/07/27 07:30:02;;;;;;;9.15;2.70;;;;;;;;;;5066004;28;20045;-71
2022/07/27 07:32:28;;;;;;;15.35;3.05;;;;;;;;;;5062684;28;20075;-72
2022/07/27 07:34:55;;;;;;;12.38;2.75;;;;;;;;;;5047481;28;20047;-72
2022/07/27 07:37:21;;;;;;;7.43;3.10;;;;;;;;;;5061605;28;20048;-72
2022/07/27 07:39:47;;;;;;;8.13;3.22;;;;;;;;;;5067528;28;21763;-72
2022/07/27 07:42:13;;;;;;;8.00;2.67;;;;;;;;;;5063904;28;20071;-72
2022/07/27 07:44:39;;;;;;;7.13;2.90;;;;;;;;;;5067031;28;20080;-72
2022/07/27 07:47:08;;;;;;;6.60;2.90;;;;;;;;;;5096916;27;20455;-72
2022/07/27 07:49:34;;;;;;;11.07;3.22;;;;;;;;;;5064987;28;20636;-72
2022/07/27 07:52:01;;;;;;;6.95;2.45;;;;;;;;;;5065988;28;20041;-72
2022/07/27 07:54:27;;;;;;;5.85;2.40;;;;;;;;;;5062679;28;20824;-75
2022/07/27 07:56:53;;;;;;;5.15;2.45;;;;;;;;;;5063245;28;20069;-72
2022/07/27 07:59:19;;;;;;;6.82;2.45;;;;;;;;;;5061960;28;20580;-72
2022/07/27 08:01:45;;;;;;;4.93;2.58;;;;;;;;;;5063913;28;20041;-72
2022/07/27 08:04:11;;;;;;;6.32;2.70;;;;;;;;;;5064861;28;20044;-72
2022/07/27 08:06:38;;;;;;;8.70;2.97;;;;;;;;;;5044266;28;20593;-72
2022/07/27 08:09:05;;;;;;;11.38;3.33;;;;;;;;;;5062216;28;20503;-72
2022/07/27 08:11:31;;;;;;;6.90;2.47;;;;;;;;;;5089500;27;22097;-72
2022/07/27 08:13:57;;;;;;;6.43;2.83;;;;;;;;;;5060111;28;20060;-73
2022/07/27 08:16:24;;;;;;;9.75;3.00;;;;;;;;;;5064242;28;20037;-72
2022/07/27 08:18:50;;;;;;;5.00;2.13;;;;;;;;;;5060442;28;20467;-72
2022/07/27 08:21:16;;;;;;;5.75;2.90;;;;;;;;;;5062289;28;20044;-72
2022/07/27 08:23:42;;;;;;;8.95;2.88;;;;;;;;;;5059004;28;20037;-71
2022/07/27 08:26:08;;;;;;;9.60;2.60;;;;;;;;;;5062955;28;20044;-72
2022/07/27 08:28:34;;;;;;;4.47;2.47;;;;;;;;;;5061246;28;20399;-72
2022/07/27 08:31:00;;;;;;;10.40;3.22;;;;;;;;;;5060580;28;20611;-72
2022/07/27 08:33:27;;;;;;;4.15;2.30;;;;;;;;;;5059658;28;20855;-72
2022/07/27 08:35:53;;;;;;;7.15;2.70;;;;;;;;;;5062359;28;20099;-71
2022/07/27 08:38:19;;;;;;;10.10;3.30;;;;;;;;;;5093394;27;20048;-72
2022/07/27 08:40:45;;;;;;;7.63;2.60;;;;;;;;;;5090546;27;20455;-71
2022/07/27 08:43:14;;;;;;;18.23;4.70;;;;;;;;;;5095406;27;20591;-73
2022/07/27 08:45:40;;;;;;;7.40;2.70;;;;;;;;;;5058881;28;20037;-72
2022/07/27 08:48:06;;;;;;;9.15;3.28;;;;;;;;;;5060387;28;20090;-72
2022/07/27 08:50:34;;;;;;;11.43;4.32;;;;;;;;;;5063089;28;20056;-72
2022/07/27 08:53:03;;;;;;;10.63;2.72;;;;;;;;;;5062467;28;20055;-71
2022/07/27 08:55:30;;;;;;;10.27;2.97;;;;;;;;;;5092090;27;20029;-72
2022/07/27 08:57:57;;;;;;;6.20;2.83;;;;;;;;;;5059101;28;20060;-71
2022/07/27 09:00:23;;;;;;;9.07;2.25;;;;;;;;;;5060331;28;20501;-71
2022/07/27 09:02:50;;;;;;;5.60;1.80;;;;;;;;;;5056662;28;20355;-72
2022/07/27 09:05:16;;;;;;;5.18;2.53;;;;;;;;;;5091332;27;20065;-72
2022/07/27 09:07:42;;;;;;;5.35;2.33;;;;;;;;;;5058891;28;20599;-72
2022/07/27 09:10:08;;;;;;;7.30;2.80;;;;;;;;;;5061528;28;20045;-72
2022/07/27 09:12:35;;;;;;;7.65;2.08;;;;;;;;;;5094626;27;20087;-72
2022/07/27 09:15:06;;;;;;;15.00;2.30;;;;;;;;;;5087538;27;20045;-72
2022/07/27 09:17:33;;;;;;;12.07;3.85;;;;;;;;;;5095525;27;20144;-72
2022/07/27 09:20:00;;;;;;;6.60;2.25;;;;;;;;;;5062199;28;20041;-72
2022/07/27 09:22:45;;;;;;;10.57;2.70;;;;;;;;;;5061833;28;20114;-73
2022/07/27 09:25:13;;;;;;;3.83;1.67;;;;;;;;;;5062383;28;20071;-72
2022/07/27 09:27:40;;;;;;;3.08;2.03;;;;;;;;;;5056656;28;20649;-72
2022/07/27 09:30:17;;;;;;;3.78;1.80;;;;;;;;;;5061450;28;20576;-73
2022/07/27 09:33:06;;;;;;;5.15;2.25;;;;;;;;;;5095382;27;20044;-73
2022/07/27 09:35:33;;;;;;;5.05;1.77;;;;;;;;;;5094369;27;20044;-72
2022/07/27 09:38:18;;;;;;;5.32;1.73;;;;;;;;;;5062272;28;20049;-72
2022/07/27 09:40:45;;;;;;;5.28;1.00;;;;;;;;;;5062092;28;20160;-73
2022/07/27 09:43:12;;;;;;;7.63;1.20;;;;;;;;;;5058876;28;20036;-72
2022/07/27 09:45:42;;;;;;;1.75;0.98;;;;;;;;;;5092130;27;20128;-72
2022/07/27 09:48:08;;;;;;;2.92;1.25;;;;;;;;;;5076052;28;20959;-72
2022/07/27 09:50:34;;;;;;;3.05;1.20;;;;;;;;;;5060775;28;20079;-73
2022/07/27 09:53:17;;;;;;;5.72;1.30;;;;;;;;;;5059751;28;20045;-72
2022/07/27 09:55:45;;;;;;;3.53;1.50;;;;;;;;;;5092746;27;20044;-72
2022/07/27 09:58:11;;;;;;;2.78;1.38;;;;;;;;;;5043473;28;20099;-72
2022/07/27 10:00:37;;;;;;;1.80;1.30;;;;;;;;;;5093269;27;20048;-72
2022/07/27 10:03:03;;;;;;;4.72;1.60;;;;;;;;;;5060024;28;20037;-73
2022/07/27 10:05:30;;;;;;;3.15;1.30;;;;;;;;;;5092923;27;20676;-73
2022/07/27 10:07:56;;;;;;;1.75;1.20;;;;;;;;;;5059697;28;20053;-72
2022/07/27 10:10:23;;;;;;;1.98;1.42;;;;;;;;;;5060333;28;20049;-72
2022/07/27 10:12:51;;;;;;;4.05;1.55;;;;;;;;;;5058695;28;20072;-72
2022/07/27 10:15:17;;;;;;;3.83;1.45;;;;;;;;;;5089119;27;20851;-72
2022/07/27 10:17:44;;;;;;;2.95;1.50;;;;;;;;;;5061122;28;20047;-73
2022/07/27 10:20:11;;;;;;;3.33;1.50;;;;;;;;;;5059883;28;20541;-72
2022/07/27 10:22:57;;;;;;;1.88;1.20;;;;;;;;;;5090783;27;20037;-72
2022/07/27 10:25:24;;;;;;;3.92;1.42;;;;;;;;;;5058053;28;20029;-72
2022/07/27 10:28:09;;;;;;;3.33;1.70;;;;;;;;;;5060846;28;20049;-73
2022/07/27 10:30:35;;;;;;;4.30;1.83;;;;;;;;;;5057941;28;20076;-73
2022/07/27 10:33:14;;;;;;;6.82;1.67;;;;;;;;;;5058338;28;20055;-72
2022/07/27 10:35:41;;;;;;;2.75;1.38;;;;;;;;;;5057549;28;20041;-74
2022/07/27 10:38:14;;;;;;;5.80;1.52;;;;;;;;;;5062187;28;20041;-77
2022/07/27 10:40:40;;;;;;;7.88;2.60;;;;;;;;;;5062834;28;20041;-74
2022/07/27 10:43:17;;;;;;;6.38;1.65;;;;;;;;;;5060290;28;20051;-76
2022/07/27 10:45:44;;;;;;;5.00;1.80;;;;;;;;;;5060319;28;20041;-80
2022/07/27 10:48:30;;;;;;;3.47;1.65;;;;;;;;;;5060488;28;20524;-74
2022/07/27 10:50:56;;;;;;;3.88;1.90;;;;;;;;;;5091685;27;20053;-72
2022/07/27 10:53:32;;;;;;;4.05;1.67;;;;;;;;;;5059073;28;20047;-74
2022/07/27 10:55:58;;;;;;;2.60;1.30;;;;;;;;;;5093572;27;20530;-73
2022/07/27 10:58:27;;;;;;;4.65;1.65;;;;;;;;;;5059536;28;20088;-73
2022/07/27 11:00:53;;;;;;;2.00;1.20;;;;;;;;;;5056483;28;20033;-74
2022/07/27 11:03:22;;;;;;;2.33;1.17;;;;;;;;;;5060453;28;20044;-76
2022/07/27 11:05:58;;;;;;;2.78;1.20;;;;;;;;;;5062257;28;20048;-73
2022/07/27 11:08:34;;;;;;;9.75;1.33;;;;;;;;;;5092172;27;20570;-73
2022/07/27 11:11:01;;;;;;;2.47;1.35;;;;;;;;;;5059446;28;20362;-72
2022/07/27 11:13:28;;;;;;;1.95;1.30;;;;;;;;;;5061920;28;20049;-72
2022/07/27 11:16:01;;;;;;;2.20;1.52;;;;;;;;;;5060520;28;20047;-72
2022/07/27 11:18:31;;;;;;;3.35;1.77;;;;;;;;;;5061990;28;20579;-71
2022/07/27 11:21:12;;;;;;;2.53;1.33;;;;;;;;;;5062680;28;20056;-72
2022/07/27 11:23:39;;;;;;;7.75;2.05;;;;;;;;;;5048578;28;20123;-72
2022/07/27 11:26:05;;;;;;;3.97;2.25;;;;;;;;;;5065839;28;20044;-72
2022/07/27 11:28:32;;;;;;;4.75;1.83;;;;;;;;;;5095607;27;20052;-71
2022/07/27 11:30:58;;;;;;;6.43;1.33;;;;;;;;;;5065935;28;20049;-72
2022/07/27 11:33:25;;;;;;;5.22;1.50;;;;;;;;;;5065070;28;20906;-72
2022/07/27 11:35:54;;;;;;;2.10;1.27;;;;;;;;;;5061294;28;20045;-72
2022/07/27 11:38:21;;;;;;;1.65;1.23;;;;;;;;;;5063693;28;20859;-72
2022/07/27 11:40:49;;;;;;;2.42;1.05;;;;;;;;;;5064202;28;21610;-71
2022/07/27 11:43:32;;;;;;;4.45;1.85;;;;;;;;;;5048718;28;20072;-72
2022/07/27 11:46:10;;;;;;;2.05;1.50;;;;;;;;;;5061881;28;20487;-72
2022/07/27 11:48:36;;;;;;;1.70;1.17;;;;;;;;;;5066003;28;20557;-72
2022/07/27 11:51:04;;;;;;;4.07;1.42;;;;;;;;;;5065147;28;20045;-72
2022/07/27 11:53:30;;;;;;;6.47;2.88;;;;;;;;;;5066775;28;20567;-72
2022/07/27 11:55:56;;;;;;;4.10;1.52;;;;;;;;;;5063116;28;20543;-72
2022/07/27 11:58:22;;;;;;;2.00;1.27;;;;;;;;;;5098697;27;20966;-71
2022/07/27 12:00:49;;;;;;;2.90;1.40;;;;;;;;;;5066031;28;20047;-72
2022/07/27 12:03:28;;;;;;;5.03;2.10;;;;;;;;;;5067422;28;20045;-72
2022/07/27 12:05:58;;;;;;;4.20;1.48;;;;;;;;;;5064080;28;20695;-72
2022/07/27 12:08:24;;;;;;;1.25;0.90;;;;;;;;;;5064173;28;20057;-72
2022/07/27 12:10:57;;;;;;;3.33;1.02;;;;;;;;;;5060536;28;20128;-75
2022/07/27 12:13:31;;;;;;;3.67;1.25;;;;;;;;;;5052527;28;20049;-78
2022/07/27 12:15:57;;;;;;;4.20;1.30;;;;;;;;;;5055058;28;20041;-80
2022/07/27 12:18:23;;;;;;;4.68;1.42;;;;;;;;;;5055055;28;20055;-73
2022/07/27 12:20:50;;;;;;;3.55;1.58;;;;;;;;;;5061777;28;20143;-71
2022/07/27 12:23:17;;;;;;;3.95;1.67;;;;;;;;;;5059980;28;20041;-72
2022/07/27 12:25:43;;;;;;;2.00;1.13;;;;;;;;;;5091243;27;20060;-72
2022/07/27 12:28:16;;;;;;;3.75;1.13;;;;;;;;;;5059330;28;20104;-71
2022/07/27 12:30:43;;;;;;;3.60;1.75;;;;;;;;;;5063251;28;20223;-71
2022/07/27 12:33:26;;;;;;;6.68;2.05;;;;;;;;;;5062800;28;20562;-70
2022/07/27 12:35:52;;;;;;;8.68;3.08;;;;;;;;;;5062005;28;20047;-70
2022/07/27 12:38:18;;;;;;;2.30;1.00;;;;;;;;;;5063652;28;20040;-71
2022/07/27 12:40:46;;;;;;;2.13;1.25;;;;;;;;;;5063606;28;20405;-71
2022/07/27 12:43:15;;;;;;;3.40;1.80;;;;;;;;;;5061977;28;20041;-71
2022/07/27 12:45:41;;;;;;;2.92;1.17;;;;;;;;;;5064668;28;20037;-71
2022/07/27 12:48:08;;;;;;;4.43;1.50;;;;;;;;;;5064193;28;20144;-71
2022/07/27 12:50:35;;;;;;;3.70;1.40;;;;;;;;;;5062737;28;20041;-75
2022/07/27 12:53:01;;;;;;;3.05;1.45;;;;;;;;;;5095349;27;20187;-73
2022/07/27 12:55:27;;;;;;;6.13;2.03;;;;;;;;;;5064345;28;20076;-74
2022/07/27 12:57:53;;;;;;;3.90;1.30;;;;;;;;;;5059910;28;20044;-77
2022/07/27 13:00:22;;;;;;;3.13;1.77;;;;;;;;;;5057845;28;20045;-71
2022/07/27 13:02:48;;;;;;;5.93;1.45;;;;;;;;;;5058729;28;20390;-71
2022/07/27 13:05:14;;;;;;;3.72;1.10;;;;;;;;;;5065046;28;20044;-71
2022/07/27 13:07:42;;;;;;;6.03;2.17;;;;;;;;;;5063907;28;20183;-71
2022/07/27 13:10:09;;;;;;;3.90;1.20;;;;;;;;;;5059282;28;20059;-71
2022/07/27 13:12:36;;;;;;;7.10;1.50;;;;;;;;;;5061817;28;21415;-71
2022/07/27 13:15:02;;;;;;;6.82;1.40;;;;;;;;;;5060545;28;20271;-71
2022/07/27 13:17:28;;;;;;;4.80;1.75;;;;;;;;;;5054548;28;20041;-71
2022/07/27 13:19:55;;;;;;;2.97;1.55;;;;;;;;;;5060310;28;20375;-71
2022/07/27 13:22:21;;;;;;;3.50;1.05;;;;;;;;;;5061557;28;20037;-74
2022/07/27 13:24:47;;;;;;;3.72;1.50;;;;;;;;;;5059471;28;20115;-71
2022/07/27 13:27:13;;;;;;;8.80;2.17;;;;;;;;;;5061961;28;20044;-71
2022/07/27 13:29:39;;;;;;;6.95;1.55;;;;;;;;;;5094549;27;20523;-71
2022/07/27 13:32:05;;;;;;;4.88;1.00;;;;;;;;;;5045111;28;20036;-71
2022/07/27 13:34:31;;;;;;;3.65;1.10;;;;;;;;;;5060959;28;20044;-71
2022/07/27 13:36:57;;;;;;;3.08;1.27;;;;;;;;;;5061758;28;20147;-71
2022/07/27 13:39:24;;;;;;;3.72;1.27;;;;;;;;;;5062090;28;20128;-72
2022/07/27 13:41:53;;;;;;;6.20;1.40;;;;;;;;;;5060617;28;20068;-71
2022/07/27 13:44:20;;;;;;;3.80;1.65;;;;;;;;;;5057540;28;20033;-71
2022/07/27 13:46:47;;;;;;;3.30;1.15;;;;;;;;;;5094119;27;20648;-71
2022/07/27 13:49:13;;;;;;;4.25;1.73;;;;;;;;;;5063143;28;20041;-71
2022/07/27 13:51:39;;;;;;;3.83;1.30;;;;;;;;;;5064196;28;20103;-71
2022/07/27 13:54:05;;;;;;;5.57;1.48;;;;;;;;;;5063992;28;20530;-71
2022/07/27 13:56:33;;;;;;;2.17;1.27;;;;;;;;;;5062808;28;20140;-71
2022/07/27 13:58:59;;;;;;;5.00;1.92;;;;;;;;;;5063391;28;20037;-71
2022/07/27 14:01:25;;;;;;;3.67;1.38;;;;;;;;;;5062710;28;20055;-71
2022/07/27 14:03:52;;;;;;;11.98;1.73;;;;;;;;;;5046291;28;20067;-71
2022/07/27 14:06:19;;;;;;;3.38;1.52;;;;;;;;;;5058794;28;20095;-71
2022/07/27 14:08:45;;;;;;;2.47;1.20;;;;;;;;;;5045163;28;20577;-71
2022/07/27 14:11:11;;;;;;;3.60;1.30;;;;;;;;;;5063073;28;20576;-71
2022/07/27 14:13:38;;;;;;;6.28;1.30;;;;;;;;;;5060779;28;20116;-71
2022/07/27 14:16:05;;;;;;;8.60;1.80;;;;;;;;;;5062785;28;20048;-71
2022/07/27 14:18:32;;;;;;;3.70;1.30;;;;;;;;;;5062291;28;20041;-71
2022/07/27 14:20:59;;;;;;;2.75;1.20;;;;;;;;;;5063873;28;20048;-71
2022/07/27 14:23:25;;;;;;;3.03;1.40;;;;;;;;;;5061902;28;20041;-71
2022/07/27 14:25:52;;;;;;;2.28;1.45;;;;;;;;;;5064152;28;20115;-71
2022/07/27 14:28:18;;;;;;;4.80;1.65;;;;;;;;;;5062453;28;20550;-71
2022/07/27 14:30:44;;;;;;;4.10;1.02;;;;;;;;;;5056538;28;20267;-73
2022/07/27 14:33:10;;;;;;;4.78;2.30;;;;;;;;;;5059737;28;20107;-73
2022/07/27 14:35:37;;;;;;;3.33;1.30;;;;;;;;;;5059229;28;20072;-73
2022/07/27 14:38:03;;;;;;;5.25;1.70;;;;;;;;;;5060200;28;20700;-70
2022/07/27 14:40:29;;;;;;;2.58;1.55;;;;;;;;;;5096049;27;20558;-70
2022/07/27 14:42:55;;;;;;;3.65;1.00;;;;;;;;;;5089839;27;20125;-71
2022/07/27 14:45:22;;;;;;;2.65;1.10;;;;;;;;;;5087187;27;20049;-70
2022/07/27 14:47:48;;;;;;;5.10;1.98;;;;;;;;;;5058226;28;20087;-70